sensor_id;sensor_type;location;lat;lon;timestamp;P1;durP1;ratioP1;P2;durP2;ratioP2
78141;SDS011;67393;52.620;13.482;2023-04-08T00:00:44;31.63;;;12.60;;
78141;SDS011;67393;52.620;13.482;2023-04-08T00:03:10;31.58;;;12.65;;
78141;SDS011;67393;52.620;13.482;2023-04-08T00:05:37;28.90;;;12.60;;
78141;SDS011;67393;52.620;13.482;2023-04-08T00:08:04;30.25;;;12.57;;
78141;SDS011;67393;52.620;13.482;2023-04-08T00:10:31;32.15;;;14.40;;
78141;SDS011;67393;52.620;13.482;2023-04-08T00:12:57;28.67;;;13.00;;
78141;SDS011;67393;52.620;13.482;2023-04-08T00:15:23;31.25;;;12.98;;
78141;SDS011;67393;52.620;13.482;2023-04-08T00:17:50;32.47;;;14.13;;
78141;SDS011;67393;52.620;13.482;2023-04-08T00:20:16;34.05;;;13.70;;
78141;SDS011;67393;52.620;13.482;2023-04-08T00:22:42;31.48;;;13.02;;
78141;SDS011;67393;52.620;13.482;2023-04-08T00:25:09;36.47;;;15.00;;
78141;SDS011;67393;52.620;13.482;2023-04-08T00:27:35;31.77;;;13.95;;
78141;SDS011;67393;52.620;13.482;2023-04-08T00:30:01;33.65;;;13.15;;
78141;SDS011;67393;52.620;13.482;2023-04-08T00:32:28;35.78;;;14.93;;
78141;SDS011;67393;52.620;13.482;2023-04-08T00:34:54;43.47;;;16.10;;
78141;SDS011;67393;52.620;13.482;2023-04-08T00:37:23;35.03;;;15.13;;
78141;SDS011;67393;52.620;13.482;2023-04-08T00:39:50;32.78;;;14.77;;
78141;SDS011;67393;52.620;13.482;2023-04-08T00:42:16;38.55;;;15.05;;
78141;SDS011;67393;52.620;13.482;2023-04-08T00:44:42;39.90;;;15.35;;
78141;SDS011;67393;52.620;13.482;2023-04-08T00:47:12;38.45;;;14.55;;
78141;SDS011;67393;52.620;13.482;2023-04-08T00:49:39;41.28;;;15.48;;
78141;SDS011;67393;52.620;13.482;2023-04-08T00:52:05;40.85;;;15.05;;
78141;SDS011;67393;52.620;13.482;2023-04-08T00:54:32;39.45;;;16.77;;
78141;SDS011;67393;52.620;13.482;2023-04-08T00:56:58;37.00;;;14.43;;
78141;SDS011;67393;52.620;13.482;2023-04-08T00:59:24;34.05;;;15.10;;
78141;SDS011;67393;52.620;13.482;2023-04-08T01:01:56;40.25;;;15.23;;
78141;SDS011;67393;52.620;13.482;2023-04-08T01:04:31;41.20;;;15.52;;
78141;SDS011;67393;52.620;13.482;2023-04-08T01:07:09;40.85;;;15.45;;
78141;SDS011;67393;52.620;13.482;2023-04-08T01:09:42;38.67;;;15.55;;
78141;SDS011;67393;52.620;13.482;2023-04-08T01:12:12;43.60;;;16.95;;
78141;SDS011;67393;52.620;13.482;2023-04-08T01:17:12;39.42;;;14.73;;
78141;SDS011;67393;52.620;13.482;2023-04-08T01:19:40;48.50;;;16.65;;
78141;SDS011;67393;52.620;13.482;2023-04-08T01:22:12;37.70;;;14.18;;
78141;SDS011;67393;52.620;13.482;2023-04-08T01:24:58;37.92;;;14.57;;
78141;SDS011;67393;52.620;13.482;2023-04-08T01:27:28;37.67;;;15.30;;
78141;SDS011;67393;52.620;13.482;2023-04-08T01:29:57;38.42;;;14.93;;
78141;SDS011;67393;52.620;13.482;2023-04-08T01:32:24;43.28;;;15.57;;
78141;SDS011;67393;52.620;13.482;2023-04-08T01:34:52;38.80;;;17.20;;
78141;SDS011;67393;52.620;13.482;2023-04-08T01:37:19;40.70;;;17.33;;
78141;SDS011;67393;52.620;13.482;2023-04-08T01:39:47;43.80;;;15.65;;
78141;SDS011;67393;52.620;13.482;2023-04-08T01:42:15;33.08;;;14.52;;
78141;SDS011;67393;52.620;13.482;2023-04-08T01:44:42;40.00;;;17.00;;
78141;SDS011;67393;52.620;13.482;2023-04-08T01:47:09;36.10;;;14.80;;
78141;SDS011;67393;52.620;13.482;2023-04-08T01:49:38;39.40;;;15.73;;
78141;SDS011;67393;52.620;13.482;2023-04-08T01:54:34;41.50;;;15.23;;
78141;SDS011;67393;52.620;13.482;2023-04-08T01:57:01;43.30;;;16.98;;
78141;SDS011;67393;52.620;13.482;2023-04-08T01:59:30;41.63;;;15.52;;
78141;SDS011;67393;52.620;13.482;2023-04-08T02:02:01;46.03;;;15.75;;
78141;SDS011;67393;52.620;13.482;2023-04-08T02:04:30;42.47;;;14.52;;
78141;SDS011;67393;52.620;13.482;2023-04-08T02:07:00;38.55;;;15.40;;
78141;SDS011;67393;52.620;13.482;2023-04-08T02:09:26;34.75;;;15.48;;
78141;SDS011;67393;52.620;13.482;2023-04-08T02:11:53;36.63;;;14.88;;
78141;SDS011;67393;52.620;13.482;2023-04-08T02:14:19;36.13;;;14.75;;
78141;SDS011;67393;52.620;13.482;2023-04-08T02:16:52;45.83;;;15.73;;
78141;SDS011;67393;52.620;13.482;2023-04-08T02:19:29;34.08;;;14.57;;
78141;SDS011;67393;52.620;13.482;2023-04-08T02:22:02;39.88;;;13.75;;
78141;SDS011;67393;52.620;13.482;2023-04-08T02:24:31;39.85;;;14.85;;
78141;SDS011;67393;52.620;13.482;2023-04-08T02:26:58;42.38;;;15.68;;
78141;SDS011;67393;52.620;13.482;2023-04-08T02:29:25;44.88;;;17.10;;
78141;SDS011;67393;52.620;13.482;2023-04-08T02:31:56;42.50;;;15.70;;
78141;SDS011;67393;52.620;13.482;2023-04-08T02:34:23;40.22;;;15.52;;
78141;SDS011;67393;52.620;13.482;2023-04-08T02:36:50;38.67;;;16.08;;
78141;SDS011;67393;52.620;13.482;2023-04-08T02:39:17;45.63;;;16.30;;
78141;SDS011;67393;52.620;13.482;2023-04-08T02:41:43;43.97;;;15.07;;
78141;SDS011;67393;52.620;13.482;2023-04-08T02:44:09;42.83;;;16.35;;
78141;SDS011;67393;52.620;13.482;2023-04-08T02:46:36;44.20;;;17.38;;
78141;SDS011;67393;52.620;13.482;2023-04-08T02:49:02;40.72;;;16.80;;
78141;SDS011;67393;52.620;13.482;2023-04-08T02:51:28;47.90;;;16.27;;
78141;SDS011;67393;52.620;13.482;2023-04-08T02:53:55;36.30;;;15.75;;
78141;SDS011;67393;52.620;13.482;2023-04-08T02:56:21;41.72;;;15.38;;
78141;SDS011;67393;52.620;13.482;2023-04-08T02:58:47;47.78;;;16.95;;
78141;SDS011;67393;52.620;13.482;2023-04-08T03:01:14;36.17;;;14.82;;
78141;SDS011;67393;52.620;13.482;2023-04-08T03:03:40;41.17;;;16.35;;
78141;SDS011;67393;52.620;13.482;2023-04-08T03:06:07;47.35;;;17.23;;
78141;SDS011;67393;52.620;13.482;2023-04-08T03:08:33;42.10;;;17.25;;
78141;SDS011;67393;52.620;13.482;2023-04-08T03:11:00;45.25;;;16.15;;
78141;SDS011;67393;52.620;13.482;2023-04-08T03:13:26;49.50;;;17.23;;
78141;SDS011;67393;52.620;13.482;2023-04-08T03:15:52;42.30;;;16.52;;
78141;SDS011;67393;52.620;13.482;2023-04-08T03:18:19;44.33;;;16.40;;
78141;SDS011;67393;52.620;13.482;2023-04-08T03:20:45;36.25;;;14.98;;
78141;SDS011;67393;52.620;13.482;2023-04-08T03:23:11;42.63;;;17.40;;
78141;SDS011;67393;52.620;13.482;2023-04-08T03:25:38;42.60;;;17.20;;
78141;SDS011;67393;52.620;13.482;2023-04-08T03:28:04;44.80;;;16.55;;
78141;SDS011;67393;52.620;13.482;2023-04-08T03:30:30;46.92;;;16.75;;
78141;SDS011;67393;52.620;13.482;2023-04-08T03:32:57;42.33;;;16.63;;
78141;SDS011;67393;52.620;13.482;2023-04-08T03:35:23;50.78;;;17.13;;
78141;SDS011;67393;52.620;13.482;2023-04-08T03:37:50;40.70;;;15.85;;
78141;SDS011;67393;52.620;13.482;2023-04-08T03:40:16;45.20;;;16.25;;
78141;SDS011;67393;52.620;13.482;2023-04-08T03:42:42;45.70;;;16.15;;
78141;SDS011;67393;52.620;13.482;2023-04-08T03:45:09;47.78;;;15.90;;
78141;SDS011;67393;52.620;13.482;2023-04-08T03:47:35;50.70;;;18.48;;
78141;SDS011;67393;52.620;13.482;2023-04-08T03:50:02;40.28;;;17.95;;
78141;SDS011;67393;52.620;13.482;2023-04-08T03:52:28;41.83;;;16.90;;
78141;SDS011;67393;52.620;13.482;2023-04-08T03:54:54;45.30;;;16.92;;
78141;SDS011;67393;52.620;13.482;2023-04-08T03:57:20;48.50;;;16.77;;
78141;SDS011;67393;52.620;13.482;2023-04-08T03:59:47;43.63;;;15.93;;
78141;SDS011;67393;52.620;13.482;2023-04-08T04:02:13;46.50;;;16.75;;
78141;SDS011;67393;52.620;13.482;2023-04-08T04:04:39;43.03;;;17.67;;
78141;SDS011;67393;52.620;13.482;2023-04-08T04:07:06;42.80;;;15.75;;
78141;SDS011;67393;52.620;13.482;2023-04-08T04:09:32;39.50;;;15.90;;
78141;SDS011;67393;52.620;13.482;2023-04-08T04:11:58;47.58;;;15.95;;
78141;SDS011;67393;52.620;13.482;2023-04-08T04:14:25;47.78;;;17.58;;
78141;SDS011;67393;52.620;13.482;2023-04-08T04:16:51;40.60;;;16.42;;
78141;SDS011;67393;52.620;13.482;2023-04-08T04:19:17;45.85;;;17.10;;
78141;SDS011;67393;52.620;13.482;2023-04-08T04:21:44;45.72;;;15.85;;
78141;SDS011;67393;52.620;13.482;2023-04-08T04:24:10;42.80;;;17.05;;
78141;SDS011;67393;52.620;13.482;2023-04-08T04:26:36;48.45;;;15.98;;
78141;SDS011;67393;52.620;13.482;2023-04-08T04:29:02;44.53;;;16.63;;
78141;SDS011;67393;52.620;13.482;2023-04-08T04:31:29;42.92;;;16.85;;
78141;SDS011;67393;52.620;13.482;2023-04-08T04:33:55;38.97;;;16.90;;
78141;SDS011;67393;52.620;13.482;2023-04-08T04:36:21;48.25;;;16.30;;
78141;SDS011;67393;52.620;13.482;2023-04-08T04:38:48;46.00;;;17.95;;
78141;SDS011;67393;52.620;13.482;2023-04-08T04:41:16;46.08;;;18.67;;
78141;SDS011;67393;52.620;13.482;2023-04-08T04:43:42;40.45;;;16.15;;
78141;SDS011;67393;52.620;13.482;2023-04-08T04:46:08;47.88;;;17.15;;
78141;SDS011;67393;52.620;13.482;2023-04-08T04:48:35;50.60;;;17.52;;
78141;SDS011;67393;52.620;13.482;2023-04-08T04:51:01;49.70;;;18.15;;
78141;SDS011;67393;52.620;13.482;2023-04-08T04:53:28;46.55;;;18.00;;
78141;SDS011;67393;52.620;13.482;2023-04-08T04:55:55;50.17;;;17.05;;
78141;SDS011;67393;52.620;13.482;2023-04-08T04:58:21;42.47;;;16.55;;
78141;SDS011;67393;52.620;13.482;2023-04-08T05:00:48;44.88;;;16.75;;
78141;SDS011;67393;52.620;13.482;2023-04-08T05:03:14;45.35;;;18.67;;
78141;SDS011;67393;52.620;13.482;2023-04-08T05:05:40;52.63;;;18.52;;
78141;SDS011;67393;52.620;13.482;2023-04-08T05:08:07;47.03;;;18.23;;
78141;SDS011;67393;52.620;13.482;2023-04-08T05:10:33;52.67;;;19.70;;
78141;SDS011;67393;52.620;13.482;2023-04-08T05:12:59;44.85;;;17.60;;
78141;SDS011;67393;52.620;13.482;2023-04-08T05:15:26;51.15;;;18.10;;
78141;SDS011;67393;52.620;13.482;2023-04-08T05:17:52;50.83;;;20.30;;
78141;SDS011;67393;52.620;13.482;2023-04-08T05:20:18;51.13;;;18.83;;
78141;SDS011;67393;52.620;13.482;2023-04-08T05:22:45;46.13;;;18.45;;
78141;SDS011;67393;52.620;13.482;2023-04-08T05:25:11;53.65;;;19.15;;
78141;SDS011;67393;52.620;13.482;2023-04-08T05:27:37;54.85;;;19.50;;
78141;SDS011;67393;52.620;13.482;2023-04-08T05:30:04;55.17;;;18.52;;
78141;SDS011;67393;52.620;13.482;2023-04-08T05:32:30;53.40;;;18.30;;
78141;SDS011;67393;52.620;13.482;2023-04-08T05:34:57;56.28;;;20.65;;
78141;SDS011;67393;52.620;13.482;2023-04-08T05:37:23;57.75;;;20.13;;
78141;SDS011;67393;52.620;13.482;2023-04-08T05:39:49;56.42;;;19.27;;
78141;SDS011;67393;52.620;13.482;2023-04-08T05:42:16;57.72;;;19.00;;
78141;SDS011;67393;52.620;13.482;2023-04-08T17:19:20;25.77;;;15.95;;
78141;SDS011;67393;52.620;13.482;2023-04-08T17:21:46;22.67;;;13.43;;
78141;SDS011;67393;52.620;13.482;2023-04-08T17:24:12;24.77;;;14.40;;
78141;SDS011;67393;52.620;13.482;2023-04-08T17:26:39;25.17;;;14.82;;
78141;SDS011;67393;52.620;13.482;2023-04-08T17:31:32;25.33;;;13.82;;
78141;SDS011;67393;52.620;13.482;2023-04-08T17:33:58;22.27;;;12.10;;
78141;SDS011;67393;52.620;13.482;2023-04-08T17:36:25;25.73;;;15.05;;
78141;SDS011;67393;52.620;13.482;2023-04-08T17:38:53;24.63;;;14.88;;
78141;SDS011;67393;52.620;13.482;2023-04-08T17:41:19;26.95;;;17.80;;
78141;SDS011;67393;52.620;13.482;2023-04-08T17:44:04;26.23;;;14.88;;
78141;SDS011;67393;52.620;13.482;2023-04-08T17:46:31;29.95;;;16.48;;
78141;SDS011;67393;52.620;13.482;2023-04-08T17:48:57;26.65;;;14.80;;
78141;SDS011;67393;52.620;13.482;2023-04-08T17:51:23;28.30;;;16.20;;
78141;SDS011;67393;52.620;13.482;2023-04-08T17:53:50;32.92;;;17.52;;
78141;SDS011;67393;52.620;13.482;2023-04-08T17:56:16;32.45;;;17.58;;
78141;SDS011;67393;52.620;13.482;2023-04-08T17:58:43;30.13;;;15.35;;
78141;SDS011;67393;52.620;13.482;2023-04-08T18:01:09;29.67;;;17.00;;
78141;SDS011;67393;52.620;13.482;2023-04-08T18:03:35;35.78;;;16.75;;
78141;SDS011;67393;52.620;13.482;2023-04-08T18:06:02;28.75;;;17.17;;
78141;SDS011;67393;52.620;13.482;2023-04-08T18:08:28;27.10;;;16.90;;
78141;SDS011;67393;52.620;13.482;2023-04-08T18:10:54;33.95;;;18.48;;
78141;SDS011;67393;52.620;13.482;2023-04-08T18:13:21;31.23;;;18.30;;
78141;SDS011;67393;52.620;13.482;2023-04-08T18:15:47;30.55;;;17.42;;
78141;SDS011;67393;52.620;13.482;2023-04-08T18:18:13;32.30;;;19.13;;
78141;SDS011;67393;52.620;13.482;2023-04-08T18:20:40;30.92;;;17.85;;
78141;SDS011;67393;52.620;13.482;2023-04-08T18:23:06;31.50;;;17.23;;
78141;SDS011;67393;52.620;13.482;2023-04-08T18:25:32;81.47;;;37.13;;
78141;SDS011;67393;52.620;13.482;2023-04-08T18:27:58;38.60;;;19.48;;
78141;SDS011;67393;52.620;13.482;2023-04-08T18:30:25;40.85;;;22.98;;
78141;SDS011;67393;52.620;13.482;2023-04-08T18:32:52;46.33;;;27.15;;
78141;SDS011;67393;52.620;13.482;2023-04-08T18:35:18;27.80;;;17.27;;
78141;SDS011;67393;52.620;13.482;2023-04-08T18:37:44;48.95;;;24.38;;
78141;SDS011;67393;52.620;13.482;2023-04-08T18:40:11;44.13;;;22.67;;
78141;SDS011;67393;52.620;13.482;2023-04-08T18:42:37;34.53;;;21.10;;
78141;SDS011;67393;52.620;13.482;2023-04-08T18:45:04;36.60;;;18.30;;
78141;SDS011;67393;52.620;13.482;2023-04-08T18:47:30;33.95;;;18.75;;
78141;SDS011;67393;52.620;13.482;2023-04-08T18:49:56;36.80;;;19.33;;
78141;SDS011;67393;52.620;13.482;2023-04-08T18:52:23;34.65;;;18.58;;
78141;SDS011;67393;52.620;13.482;2023-04-08T18:54:49;37.30;;;18.40;;
78141;SDS011;67393;52.620;13.482;2023-04-08T18:57:15;39.03;;;19.88;;
78141;SDS011;67393;52.620;13.482;2023-04-08T18:59:44;40.05;;;22.42;;
78141;SDS011;67393;52.620;13.482;2023-04-08T19:02:11;35.35;;;18.75;;
78141;SDS011;67393;52.620;13.482;2023-04-08T19:04:38;39.67;;;21.50;;
78141;SDS011;67393;52.620;13.482;2023-04-08T19:07:04;34.70;;;18.92;;
78141;SDS011;67393;52.620;13.482;2023-04-08T19:09:30;37.35;;;18.63;;
78141;SDS011;67393;52.620;13.482;2023-04-08T19:11:57;34.80;;;19.38;;
78141;SDS011;67393;52.620;13.482;2023-04-08T19:14:23;36.53;;;20.30;;
78141;SDS011;67393;52.620;13.482;2023-04-08T19:16:49;43.83;;;23.52;;
78141;SDS011;67393;52.620;13.482;2023-04-08T19:19:16;38.42;;;19.23;;
78141;SDS011;67393;52.620;13.482;2023-04-08T19:21:42;47.65;;;25.00;;
78141;SDS011;67393;52.620;13.482;2023-04-08T19:24:08;34.88;;;18.40;;
78141;SDS011;67393;52.620;13.482;2023-04-08T19:26:35;31.80;;;18.00;;
78141;SDS011;67393;52.620;13.482;2023-04-08T19:29:01;40.55;;;20.58;;
78141;SDS011;67393;52.620;13.482;2023-04-08T19:31:27;37.17;;;19.75;;
78141;SDS011;67393;52.620;13.482;2023-04-08T19:33:54;39.50;;;21.98;;
78141;SDS011;67393;52.620;13.482;2023-04-08T19:36:20;40.28;;;20.73;;
78141;SDS011;67393;52.620;13.482;2023-04-08T19:38:46;37.00;;;21.80;;
78141;SDS011;67393;52.620;13.482;2023-04-08T19:41:13;47.53;;;24.10;;
78141;SDS011;67393;52.620;13.482;2023-04-08T19:43:39;51.55;;;25.92;;
78141;SDS011;67393;52.620;13.482;2023-04-08T19:46:05;48.95;;;25.10;;
78141;SDS011;67393;52.620;13.482;2023-04-08T19:48:31;47.15;;;25.75;;
78141;SDS011;67393;52.620;13.482;2023-04-08T19:50:58;51.20;;;27.98;;
78141;SDS011;67393;52.620;13.482;2023-04-08T19:53:24;48.03;;;26.80;;
78141;SDS011;67393;52.620;13.482;2023-04-08T19:55:57;44.30;;;25.60;;
78141;SDS011;67393;52.620;13.482;2023-04-08T19:58:26;47.53;;;26.60;;
78141;SDS011;67393;52.620;13.482;2023-04-08T20:00:52;45.75;;;25.88;;
78141;SDS011;67393;52.620;13.482;2023-04-08T20:03:19;55.33;;;27.95;;
78141;SDS011;67393;52.620;13.482;2023-04-08T20:05:46;48.17;;;27.23;;
78141;SDS011;67393;52.620;13.482;2023-04-08T20:08:12;54.10;;;28.02;;
78141;SDS011;67393;52.620;13.482;2023-04-08T20:10:38;50.95;;;28.85;;
78141;SDS011;67393;52.620;13.482;2023-04-08T20:13:04;55.47;;;27.70;;
78141;SDS011;67393;52.620;13.482;2023-04-08T20:15:31;45.58;;;22.23;;
78141;SDS011;67393;52.620;13.482;2023-04-08T20:17:57;39.20;;;19.83;;
78141;SDS011;67393;52.620;13.482;2023-04-08T20:20:24;39.55;;;20.95;;
78141;SDS011;67393;52.620;13.482;2023-04-08T20:22:50;43.03;;;21.98;;
78141;SDS011;67393;52.620;13.482;2023-04-08T20:25:16;50.20;;;25.67;;
78141;SDS011;67393;52.620;13.482;2023-04-08T20:27:43;64.47;;;35.53;;
78141;SDS011;67393;52.620;13.482;2023-04-08T20:30:09;74.53;;;38.10;;
78141;SDS011;67393;52.620;13.482;2023-04-08T20:32:36;71.53;;;36.28;;
78141;SDS011;67393;52.620;13.482;2023-04-08T20:35:02;62.75;;;33.08;;
78141;SDS011;67393;52.620;13.482;2023-04-08T20:37:30;58.35;;;31.67;;
78141;SDS011;67393;52.620;13.482;2023-04-08T20:39:57;68.72;;;34.78;;
78141;SDS011;67393;52.620;13.482;2023-04-08T20:42:23;65.35;;;35.10;;
78141;SDS011;67393;52.620;13.482;2023-04-08T20:44:49;67.60;;;36.33;;
78141;SDS011;67393;52.620;13.482;2023-04-08T20:47:16;75.57;;;39.45;;
78141;SDS011;67393;52.620;13.482;2023-04-08T20:49:42;70.22;;;40.28;;
78141;SDS011;67393;52.620;13.482;2023-04-08T20:52:08;88.68;;;45.03;;
78141;SDS011;67393;52.620;13.482;2023-04-08T20:54:34;96.50;;;47.45;;
78141;SDS011;67393;52.620;13.482;2023-04-08T20:57:01;100.53;;;47.17;;
78141;SDS011;67393;52.620;13.482;2023-04-08T20:59:27;83.40;;;41.42;;
78141;SDS011;67393;52.620;13.482;2023-04-08T21:01:53;71.68;;;35.38;;
78141;SDS011;67393;52.620;13.482;2023-04-08T21:04:20;53.17;;;28.40;;
78141;SDS011;67393;52.620;13.482;2023-04-08T21:06:47;55.33;;;29.30;;
78141;SDS011;67393;52.620;13.482;2023-04-08T21:09:13;61.58;;;30.73;;
78141;SDS011;67393;52.620;13.482;2023-04-08T21:11:39;61.53;;;32.65;;
78141;SDS011;67393;52.620;13.482;2023-04-08T21:14:06;73.00;;;34.05;;
78141;SDS011;67393;52.620;13.482;2023-04-08T21:16:32;66.20;;;29.88;;
78141;SDS011;67393;52.620;13.482;2023-04-08T21:18:58;65.97;;;31.60;;
78141;SDS011;67393;52.620;13.482;2023-04-08T21:21:25;54.72;;;27.42;;
78141;SDS011;67393;52.620;13.482;2023-04-08T21:23:52;49.08;;;25.40;;
78141;SDS011;67393;52.620;13.482;2023-04-08T21:26:19;58.83;;;29.17;;
78141;SDS011;67393;52.620;13.482;2023-04-08T21:28:45;44.35;;;23.23;;
78141;SDS011;67393;52.620;13.482;2023-04-08T21:31:11;50.15;;;23.70;;
78141;SDS011;67393;52.620;13.482;2023-04-08T21:33:38;51.03;;;23.40;;
78141;SDS011;67393;52.620;13.482;2023-04-08T21:36:05;46.58;;;23.33;;
78141;SDS011;67393;52.620;13.482;2023-04-08T21:38:32;49.28;;;24.58;;
78141;SDS011;67393;52.620;13.482;2023-04-08T21:40:59;45.50;;;21.92;;
78141;SDS011;67393;52.620;13.482;2023-04-08T21:43:25;50.67;;;25.15;;
78141;SDS011;67393;52.620;13.482;2023-04-08T21:45:52;47.38;;;22.38;;
78141;SDS011;67393;52.620;13.482;2023-04-08T21:48:19;45.42;;;21.85;;
78141;SDS011;67393;52.620;13.482;2023-04-08T21:50:45;44.95;;;22.92;;
78141;SDS011;67393;52.620;13.482;2023-04-08T21:54:10;41.15;;;21.08;;
78141;SDS011;67393;52.620;13.482;2023-04-08T21:57:35;44.38;;;23.05;;
78141;SDS011;67393;52.620;13.482;2023-04-08T22:01:00;42.42;;;22.02;;
78141;SDS011;67393;52.620;13.482;2023-04-08T22:03:27;39.58;;;22.55;;
78141;SDS011;67393;52.620;13.482;2023-04-08T22:05:53;47.35;;;25.45;;
78141;SDS011;67393;52.620;13.482;2023-04-08T22:08:19;49.85;;;24.17;;
78141;SDS011;67393;52.620;13.482;2023-04-08T22:10:46;56.22;;;28.58;;
78141;SDS011;67393;52.620;13.482;2023-04-08T22:13:12;56.00;;;28.73;;
78141;SDS011;67393;52.620;13.482;2023-04-08T22:15:41;53.88;;;27.55;;
78141;SDS011;67393;52.620;13.482;2023-04-08T22:18:07;54.08;;;26.10;;
78141;SDS011;67393;52.620;13.482;2023-04-08T22:20:34;50.08;;;25.48;;
78141;SDS011;67393;52.620;13.482;2023-04-08T22:23:00;48.38;;;24.50;;
78141;SDS011;67393;52.620;13.482;2023-04-08T22:25:27;45.38;;;23.42;;
78141;SDS011;67393;52.620;13.482;2023-04-08T22:27:53;43.28;;;23.10;;
78141;SDS011;67393;52.620;13.482;2023-04-08T22:30:19;46.70;;;23.08;;
78141;SDS011;67393;52.620;13.482;2023-04-08T22:32:48;44.90;;;20.98;;
78141;SDS011;67393;52.620;13.482;2023-04-08T22:35:15;46.72;;;23.50;;
78141;SDS011;67393;52.620;13.482;2023-04-08T22:37:41;45.83;;;22.60;;
78141;SDS011;67393;52.620;13.482;2023-04-08T22:40:07;43.55;;;22.25;;
78141;SDS011;67393;52.620;13.482;2023-04-08T22:42:34;42.03;;;22.60;;
78141;SDS011;67393;52.620;13.482;2023-04-08T22:45:00;46.17;;;21.50;;
78141;SDS011;67393;52.620;13.482;2023-04-08T22:47:27;48.15;;;22.85;;
78141;SDS011;67393;52.620;13.482;2023-04-08T22:49:53;50.22;;;22.88;;
78141;SDS011;67393;52.620;13.482;2023-04-08T22:52:19;46.35;;;25.23;;
78141;SDS011;67393;52.620;13.482;2023-04-08T22:54:46;51.33;;;24.27;;
78141;SDS011;67393;52.620;13.482;2023-04-08T22:57:12;43.63;;;22.17;;
78141;SDS011;67393;52.620;13.482;2023-04-08T22:59:38;50.10;;;22.70;;
78141;SDS011;67393;52.620;13.482;2023-04-08T23:02:05;46.92;;;23.92;;
78141;SDS011;67393;52.620;13.482;2023-04-08T23:04:31;50.08;;;24.23;;
78141;SDS011;67393;52.620;13.482;2023-04-08T23:06:58;53.28;;;25.55;;
78141;SDS011;67393;52.620;13.482;2023-04-08T23:09:24;48.90;;;22.95;;
78141;SDS011;67393;52.620;13.482;2023-04-08T23:11:50;50.97;;;24.83;;
78141;SDS011;67393;52.620;13.482;2023-04-08T23:14:16;46.40;;;21.02;;
78141;SDS011;67393;52.620;13.482;2023-04-08T23:16:43;48.08;;;23.05;;
78141;SDS011;67393;52.620;13.482;2023-04-08T23:19:09;51.35;;;25.00;;
78141;SDS011;67393;52.620;13.482;2023-04-08T23:21:35;50.03;;;24.80;;
78141;SDS011;67393;52.620;13.482;2023-04-08T23:24:02;48.92;;;23.88;;
78141;SDS011;67393;52.620;13.482;2023-04-08T23:26:28;49.25;;;24.27;;
78141;SDS011;67393;52.620;13.482;2023-04-08T23:28:54;57.22;;;25.40;;
78141;SDS011;67393;52.620;13.482;2023-04-08T23:31:21;53.28;;;26.92;;
78141;SDS011;67393;52.620;13.482;2023-04-08T23:33:47;65.50;;;28.10;;
78141;SDS011;67393;52.620;13.482;2023-04-08T23:36:13;56.15;;;25.83;;
78141;SDS011;67393;52.620;13.482;2023-04-08T23:38:40;53.40;;;25.80;;
78141;SDS011;67393;52.620;13.482;2023-04-08T23:41:06;55.15;;;26.30;;
78141;SDS011;67393;52.620;13.482;2023-04-08T23:43:33;52.50;;;26.20;;
78141;SDS011;67393;52.620;13.482;2023-04-08T23:45:59;48.63;;;24.65;;
78141;SDS011;67393;52.620;13.482;2023-04-08T23:48:26;56.83;;;27.52;;
78141;SDS011;67393;52.620;13.482;2023-04-08T23:50:53;54.85;;;25.55;;
78141;SDS011;67393;52.620;13.482;2023-04-08T23:53:20;56.58;;;26.33;;
78141;SDS011;67393;52.620;13.482;2023-04-08T23:55:47;63.55;;;28.17;;
78141;SDS011;67393;52.620;13.482;2023-04-08T23:58:13;54.50;;;25.60;;
